Terminal Aerodrome Forecast
Issued by NWS Paducah, KY

Home | Current Version | Previous Version | Text Only | Print | Product List | Glossary On
Versions: 1 2 3 4 5 6 7 8 9 10 11 12 13 14 15 16 17 18 19 20 21 22
000
FTUS43 KPAH 251729
TAFPAH
TAF
KPAH 251729Z 2518/2618 17009KT P6SM FEW250
     FM260500 17007KT P6SM SCT060 BKN250 WS020/20035KT
     FM261000 18008KT P6SM BKN040
     FM261400 19011G18KT P6SM BKN025=

USA.gov is the U.S. government's official web portal to all federal, state and local government web resources and services.